sensor_id;sensor_type;location;lat;lon;timestamp;P1;durP1;ratioP1;P2;durP2;ratioP2
39128;SDS011;24864;49.940;19.770;2023-07-13T00:02:24;9.50;;;6.85;;
39128;SDS011;24864;49.940;19.770;2023-07-13T00:04:54;9.07;;;7.70;;
39128;SDS011;24864;49.940;19.770;2023-07-13T00:07:22;15.32;;;8.25;;
39128;SDS011;24864;49.940;19.770;2023-07-13T00:09:50;10.57;;;8.82;;
39128;SDS011;24864;49.940;19.770;2023-07-13T00:12:24;14.75;;;9.75;;
39128;SDS011;24864;49.940;19.770;2023-07-13T00:14:55;13.05;;;10.40;;
39128;SDS011;24864;49.940;19.770;2023-07-13T00:17:23;14.90;;;10.38;;
39128;SDS011;24864;49.940;19.770;2023-07-13T00:19:52;14.10;;;10.30;;
39128;SDS011;24864;49.940;19.770;2023-07-13T00:22:20;13.32;;;11.80;;
39128;SDS011;24864;49.940;19.770;2023-07-13T00:24:48;12.10;;;10.90;;
39128;SDS011;24864;49.940;19.770;2023-07-13T00:27:18;12.63;;;11.32;;
39128;SDS011;24864;49.940;19.770;2023-07-13T00:29:48;15.45;;;11.00;;
39128;SDS011;24864;49.940;19.770;2023-07-13T00:32:16;12.40;;;10.20;;
39128;SDS011;24864;49.940;19.770;2023-07-13T00:34:44;17.58;;;10.20;;
39128;SDS011;24864;49.940;19.770;2023-07-13T00:37:12;11.80;;;10.00;;
39128;SDS011;24864;49.940;19.770;2023-07-13T00:39:40;10.85;;;9.75;;
39128;SDS011;24864;49.940;19.770;2023-07-13T00:42:08;15.65;;;10.88;;
39128;SDS011;24864;49.940;19.770;2023-07-13T00:44:37;12.57;;;9.85;;
39128;SDS011;24864;49.940;19.770;2023-07-13T00:47:07;15.05;;;9.88;;
39128;SDS011;24864;49.940;19.770;2023-07-13T00:49:35;12.05;;;9.65;;
39128;SDS011;24864;49.940;19.770;2023-07-13T00:52:04;12.68;;;9.63;;
39128;SDS011;24864;49.940;19.770;2023-07-13T00:54:35;12.63;;;9.80;;
39128;SDS011;24864;49.940;19.770;2023-07-13T00:59:35;10.55;;;9.52;;
39128;SDS011;24864;49.940;19.770;2023-07-13T01:02:04;15.02;;;9.00;;
39128;SDS011;24864;49.940;19.770;2023-07-13T01:04:55;9.95;;;9.05;;
39128;SDS011;24864;49.940;19.770;2023-07-13T01:07:23;10.20;;;9.18;;
39128;SDS011;24864;49.940;19.770;2023-07-13T01:09:52;9.68;;;8.68;;
39128;SDS011;24864;49.940;19.770;2023-07-13T01:12:20;11.35;;;8.00;;
39128;SDS011;24864;49.940;19.770;2023-07-13T01:14:48;11.02;;;8.55;;
39128;SDS011;24864;49.940;19.770;2023-07-13T01:17:24;11.63;;;7.90;;
39128;SDS011;24864;49.940;19.770;2023-07-13T01:19:52;9.90;;;8.55;;
39128;SDS011;24864;49.940;19.770;2023-07-13T01:22:22;11.68;;;8.27;;
39128;SDS011;24864;49.940;19.770;2023-07-13T01:24:52;9.20;;;8.10;;
39128;SDS011;24864;49.940;19.770;2023-07-13T01:27:22;8.40;;;7.32;;
39128;SDS011;24864;49.940;19.770;2023-07-13T01:29:52;9.40;;;7.85;;
39128;SDS011;24864;49.940;19.770;2023-07-13T01:32:28;12.23;;;8.93;;
39128;SDS011;24864;49.940;19.770;2023-07-13T01:34:57;9.65;;;7.10;;
39128;SDS011;24864;49.940;19.770;2023-07-13T01:37:27;11.32;;;8.05;;
39128;SDS011;24864;49.940;19.770;2023-07-13T01:40:02;12.75;;;7.65;;
39128;SDS011;24864;49.940;19.770;2023-07-13T01:42:31;10.43;;;8.63;;
39128;SDS011;24864;49.940;19.770;2023-07-13T01:45:14;10.80;;;7.65;;
39128;SDS011;24864;49.940;19.770;2023-07-13T01:47:42;8.32;;;7.47;;
39128;SDS011;24864;49.940;19.770;2023-07-13T01:50:10;9.55;;;7.53;;
39128;SDS011;24864;49.940;19.770;2023-07-13T01:52:40;9.75;;;7.45;;
39128;SDS011;24864;49.940;19.770;2023-07-13T01:55:08;10.30;;;7.80;;
39128;SDS011;24864;49.940;19.770;2023-07-13T01:57:37;8.02;;;7.22;;
39128;SDS011;24864;49.940;19.770;2023-07-13T02:00:05;9.73;;;8.07;;
39128;SDS011;24864;49.940;19.770;2023-07-13T02:02:35;10.15;;;7.93;;
39128;SDS011;24864;49.940;19.770;2023-07-13T02:05:03;9.70;;;7.15;;
39128;SDS011;24864;49.940;19.770;2023-07-13T02:07:32;9.95;;;7.88;;
39128;SDS011;24864;49.940;19.770;2023-07-13T02:10:02;13.35;;;8.45;;
39128;SDS011;24864;49.940;19.770;2023-07-13T02:12:30;9.50;;;7.38;;
39128;SDS011;24864;49.940;19.770;2023-07-13T02:14:58;10.60;;;8.05;;
39128;SDS011;24864;49.940;19.770;2023-07-13T02:17:27;12.15;;;8.23;;
39128;SDS011;24864;49.940;19.770;2023-07-13T02:19:55;13.80;;;8.50;;
39128;SDS011;24864;49.940;19.770;2023-07-13T02:22:23;9.77;;;8.13;;
39128;SDS011;24864;49.940;19.770;2023-07-13T02:24:51;9.15;;;8.23;;
39128;SDS011;24864;49.940;19.770;2023-07-13T02:27:21;8.95;;;7.95;;
39128;SDS011;24864;49.940;19.770;2023-07-13T02:29:49;9.45;;;8.55;;
39128;SDS011;24864;49.940;19.770;2023-07-13T02:32:18;16.20;;;8.48;;
39128;SDS011;24864;49.940;19.770;2023-07-13T02:34:46;13.60;;;9.10;;
39128;SDS011;24864;49.940;19.770;2023-07-13T02:37:15;12.85;;;9.15;;
39128;SDS011;24864;49.940;19.770;2023-07-13T02:39:43;10.88;;;8.38;;
39128;SDS011;24864;49.940;19.770;2023-07-13T02:42:11;11.50;;;8.48;;
39128;SDS011;24864;49.940;19.770;2023-07-13T02:44:40;9.50;;;7.90;;
39128;SDS011;24864;49.940;19.770;2023-07-13T02:47:09;9.23;;;7.95;;
39128;SDS011;24864;49.940;19.770;2023-07-13T02:49:37;12.05;;;8.18;;
39128;SDS011;24864;49.940;19.770;2023-07-13T02:52:05;11.70;;;8.98;;
39128;SDS011;24864;49.940;19.770;2023-07-13T02:54:33;11.77;;;7.80;;
39128;SDS011;24864;49.940;19.770;2023-07-13T02:57:01;11.15;;;7.82;;
39128;SDS011;24864;49.940;19.770;2023-07-13T02:59:30;9.10;;;8.23;;
39128;SDS011;24864;49.940;19.770;2023-07-13T03:02:00;9.32;;;7.85;;
39128;SDS011;24864;49.940;19.770;2023-07-13T03:04:28;13.15;;;8.43;;
39128;SDS011;24864;49.940;19.770;2023-07-13T03:06:56;12.70;;;8.32;;
39128;SDS011;24864;49.940;19.770;2023-07-13T03:09:24;9.07;;;7.35;;
39128;SDS011;24864;49.940;19.770;2023-07-13T03:11:53;8.32;;;7.47;;
39128;SDS011;24864;49.940;19.770;2023-07-13T03:14:22;13.82;;;7.53;;
39128;SDS011;24864;49.940;19.770;2023-07-13T03:16:51;10.63;;;7.55;;
39128;SDS011;24864;49.940;19.770;2023-07-13T03:19:20;8.68;;;7.88;;
39128;SDS011;24864;49.940;19.770;2023-07-13T03:21:49;12.63;;;8.52;;
39128;SDS011;24864;49.940;19.770;2023-07-13T03:24:17;9.80;;;8.38;;
39128;SDS011;24864;49.940;19.770;2023-07-13T03:26:45;8.68;;;7.85;;
39128;SDS011;24864;49.940;19.770;2023-07-13T03:29:13;12.23;;;7.68;;
39128;SDS011;24864;49.940;19.770;2023-07-13T03:31:41;10.98;;;7.72;;
39128;SDS011;24864;49.940;19.770;2023-07-13T03:34:09;11.93;;;7.63;;
39128;SDS011;24864;49.940;19.770;2023-07-13T03:36:39;12.27;;;8.30;;
39128;SDS011;24864;49.940;19.770;2023-07-13T03:39:08;14.05;;;7.53;;
39128;SDS011;24864;49.940;19.770;2023-07-13T03:41:37;10.63;;;7.45;;
39128;SDS011;24864;49.940;19.770;2023-07-13T03:44:05;9.57;;;7.35;;
39128;SDS011;24864;49.940;19.770;2023-07-13T03:46:33;8.43;;;6.82;;
39128;SDS011;24864;49.940;19.770;2023-07-13T03:49:01;13.00;;;7.22;;
39128;SDS011;24864;49.940;19.770;2023-07-13T03:51:31;7.88;;;7.15;;
39128;SDS011;24864;49.940;19.770;2023-07-13T03:54:00;9.15;;;6.35;;
39128;SDS011;24864;49.940;19.770;2023-07-13T03:56:29;9.00;;;7.97;;
39128;SDS011;24864;49.940;19.770;2023-07-13T03:58:59;10.70;;;8.55;;
39128;SDS011;24864;49.940;19.770;2023-07-13T04:01:27;11.10;;;8.05;;
39128;SDS011;24864;49.940;19.770;2023-07-13T04:03:55;11.63;;;7.43;;
39128;SDS011;24864;49.940;19.770;2023-07-13T04:06:29;12.40;;;8.40;;
39128;SDS011;24864;49.940;19.770;2023-07-13T04:08:58;10.02;;;7.97;;
39128;SDS011;24864;49.940;19.770;2023-07-13T04:11:30;9.32;;;7.97;;
39128;SDS011;24864;49.940;19.770;2023-07-13T04:13:58;12.93;;;7.60;;
39128;SDS011;24864;49.940;19.770;2023-07-13T04:16:27;10.13;;;7.10;;
39128;SDS011;24864;49.940;19.770;2023-07-13T04:18:55;12.77;;;7.43;;
39128;SDS011;24864;49.940;19.770;2023-07-13T04:21:27;9.70;;;7.25;;
39128;SDS011;24864;49.940;19.770;2023-07-13T04:23:57;6.97;;;6.28;;
39128;SDS011;24864;49.940;19.770;2023-07-13T04:26:27;7.80;;;6.97;;
39128;SDS011;24864;49.940;19.770;2023-07-13T04:28:55;8.07;;;6.07;;
39128;SDS011;24864;49.940;19.770;2023-07-13T04:31:24;7.03;;;6.32;;
39128;SDS011;24864;49.940;19.770;2023-07-13T04:33:52;9.38;;;7.13;;
39128;SDS011;24864;49.940;19.770;2023-07-13T04:36:20;9.25;;;6.15;;
39128;SDS011;24864;49.940;19.770;2023-07-13T04:38:49;7.57;;;6.80;;
39128;SDS011;24864;49.940;19.770;2023-07-13T04:41:17;8.88;;;6.25;;
39128;SDS011;24864;49.940;19.770;2023-07-13T04:43:47;7.70;;;6.18;;
39128;SDS011;24864;49.940;19.770;2023-07-13T04:46:15;6.00;;;5.40;;
39128;SDS011;24864;49.940;19.770;2023-07-13T04:48:45;8.35;;;6.35;;
39128;SDS011;24864;49.940;19.770;2023-07-13T04:51:14;7.22;;;5.82;;
39128;SDS011;24864;49.940;19.770;2023-07-13T04:53:42;8.52;;;6.28;;
39128;SDS011;24864;49.940;19.770;2023-07-13T04:56:11;10.07;;;6.53;;
39128;SDS011;24864;49.940;19.770;2023-07-13T04:58:39;9.23;;;6.35;;
39128;SDS011;24864;49.940;19.770;2023-07-13T05:01:09;6.90;;;4.82;;
39128;SDS011;24864;49.940;19.770;2023-07-13T05:03:38;8.20;;;4.93;;
39128;SDS011;24864;49.940;19.770;2023-07-13T05:06:07;8.60;;;6.63;;
39128;SDS011;24864;49.940;19.770;2023-07-13T05:08:36;10.60;;;6.30;;
39128;SDS011;24864;49.940;19.770;2023-07-13T05:11:05;10.82;;;5.53;;
39128;SDS011;24864;49.940;19.770;2023-07-13T05:13:34;15.52;;;6.90;;
39128;SDS011;24864;49.940;19.770;2023-07-13T05:16:03;15.30;;;7.95;;
39128;SDS011;24864;49.940;19.770;2023-07-13T05:18:35;8.65;;;7.07;;
39128;SDS011;24864;49.940;19.770;2023-07-13T05:21:08;12.45;;;7.72;;
39128;SDS011;24864;49.940;19.770;2023-07-13T05:23:38;8.70;;;7.55;;
39128;SDS011;24864;49.940;19.770;2023-07-13T05:26:08;13.13;;;8.73;;
39128;SDS011;24864;49.940;19.770;2023-07-13T05:28:36;8.80;;;8.00;;
39128;SDS011;24864;49.940;19.770;2023-07-13T05:31:06;15.32;;;8.88;;
39128;SDS011;24864;49.940;19.770;2023-07-13T05:33:36;8.32;;;6.93;;
39128;SDS011;24864;49.940;19.770;2023-07-13T05:36:04;13.35;;;7.35;;
39128;SDS011;24864;49.940;19.770;2023-07-13T05:38:33;12.63;;;7.78;;
39128;SDS011;24864;49.940;19.770;2023-07-13T05:41:01;9.25;;;7.13;;
39128;SDS011;24864;49.940;19.770;2023-07-13T05:43:31;8.00;;;7.20;;
39128;SDS011;24864;49.940;19.770;2023-07-13T05:46:00;7.90;;;7.10;;
39128;SDS011;24864;49.940;19.770;2023-07-13T05:48:28;8.05;;;6.85;;
39128;SDS011;24864;49.940;19.770;2023-07-13T05:50:58;11.75;;;7.93;;
39128;SDS011;24864;49.940;19.770;2023-07-13T05:53:26;12.38;;;6.70;;
39128;SDS011;24864;49.940;19.770;2023-07-13T05:55:54;7.57;;;6.65;;
39128;SDS011;24864;49.940;19.770;2023-07-13T05:58:26;13.32;;;8.35;;
39128;SDS011;24864;49.940;19.770;2023-07-13T06:00:58;15.15;;;9.43;;
39128;SDS011;24864;49.940;19.770;2023-07-13T06:03:28;17.10;;;9.35;;
39128;SDS011;24864;49.940;19.770;2023-07-13T06:05:58;14.32;;;8.95;;
39128;SDS011;24864;49.940;19.770;2023-07-13T06:08:27;16.90;;;12.15;;
39128;SDS011;24864;49.940;19.770;2023-07-13T06:11:01;15.43;;;12.32;;
39128;SDS011;24864;49.940;19.770;2023-07-13T06:13:30;19.02;;;15.30;;
39128;SDS011;24864;49.940;19.770;2023-07-13T06:15:58;18.25;;;14.68;;
39128;SDS011;24864;49.940;19.770;2023-07-13T06:18:26;26.00;;;15.02;;
39128;SDS011;24864;49.940;19.770;2023-07-13T06:20:54;17.05;;;12.95;;
39128;SDS011;24864;49.940;19.770;2023-07-13T06:23:24;17.02;;;10.95;;
39128;SDS011;24864;49.940;19.770;2023-07-13T06:25:52;14.85;;;10.48;;
39128;SDS011;24864;49.940;19.770;2023-07-13T06:28:20;17.05;;;11.48;;
39128;SDS011;24864;49.940;19.770;2023-07-13T06:30:48;17.00;;;10.55;;
39128;SDS011;24864;49.940;19.770;2023-07-13T06:33:17;12.80;;;9.95;;
39128;SDS011;24864;49.940;19.770;2023-07-13T06:35:45;16.83;;;9.95;;
39128;SDS011;24864;49.940;19.770;2023-07-13T06:38:13;12.55;;;8.57;;
39128;SDS011;24864;49.940;19.770;2023-07-13T06:40:43;14.48;;;8.80;;
39128;SDS011;24864;49.940;19.770;2023-07-13T06:43:11;15.77;;;9.10;;
39128;SDS011;24864;49.940;19.770;2023-07-13T06:45:40;10.70;;;9.02;;
39128;SDS011;24864;49.940;19.770;2023-07-13T06:48:14;11.38;;;9.10;;
39128;SDS011;24864;49.940;19.770;2023-07-13T06:50:42;13.30;;;10.20;;
39128;SDS011;24864;49.940;19.770;2023-07-13T06:53:11;13.23;;;9.32;;
39128;SDS011;24864;49.940;19.770;2023-07-13T06:55:39;17.80;;;9.80;;
39128;SDS011;24864;49.940;19.770;2023-07-13T06:58:09;17.33;;;9.43;;
39128;SDS011;24864;49.940;19.770;2023-07-13T07:00:37;12.88;;;7.93;;
39128;SDS011;24864;49.940;19.770;2023-07-13T07:03:06;14.02;;;7.63;;
39128;SDS011;24864;49.940;19.770;2023-07-13T07:05:35;9.90;;;6.82;;
39128;SDS011;24864;49.940;19.770;2023-07-13T07:08:03;13.10;;;7.10;;
39128;SDS011;24864;49.940;19.770;2023-07-13T07:10:32;7.80;;;6.07;;
39128;SDS011;24864;49.940;19.770;2023-07-13T07:13:00;9.48;;;6.15;;
39128;SDS011;24864;49.940;19.770;2023-07-13T07:15:30;13.07;;;6.75;;
39128;SDS011;24864;49.940;19.770;2023-07-13T07:17:58;15.65;;;7.60;;
39128;SDS011;24864;49.940;19.770;2023-07-13T07:20:26;10.95;;;6.32;;
39128;SDS011;24864;49.940;19.770;2023-07-13T07:22:56;8.70;;;6.43;;
39128;SDS011;24864;49.940;19.770;2023-07-13T07:25:25;10.98;;;7.68;;
39128;SDS011;24864;49.940;19.770;2023-07-13T07:27:53;11.82;;;7.18;;
39128;SDS011;24864;49.940;19.770;2023-07-13T07:30:24;8.40;;;6.75;;
39128;SDS011;24864;49.940;19.770;2023-07-13T07:32:56;8.07;;;5.75;;
39128;SDS011;24864;49.940;19.770;2023-07-13T07:35:27;9.18;;;6.25;;
39128;SDS011;24864;49.940;19.770;2023-07-13T07:38:02;12.88;;;6.45;;
39128;SDS011;24864;49.940;19.770;2023-07-13T07:40:30;17.00;;;6.90;;
39128;SDS011;24864;49.940;19.770;2023-07-13T07:45:30;9.77;;;7.85;;
39128;SDS011;24864;49.940;19.770;2023-07-13T07:47:59;12.82;;;7.85;;
39128;SDS011;24864;49.940;19.770;2023-07-13T07:50:28;15.15;;;9.60;;
39128;SDS011;24864;49.940;19.770;2023-07-13T07:52:56;11.45;;;8.63;;
39128;SDS011;24864;49.940;19.770;2023-07-13T07:55:24;12.43;;;9.38;;
39128;SDS011;24864;49.940;19.770;2023-07-13T08:00:27;16.00;;;6.78;;
39128;SDS011;24864;49.940;19.770;2023-07-13T08:03:12;9.30;;;6.47;;
39128;SDS011;24864;49.940;19.770;2023-07-13T08:05:43;11.15;;;5.82;;
39128;SDS011;24864;49.940;19.770;2023-07-13T08:08:31;15.20;;;7.05;;
39128;SDS011;24864;49.940;19.770;2023-07-13T08:11:01;14.50;;;6.00;;
39128;SDS011;24864;49.940;19.770;2023-07-13T08:13:50;7.85;;;5.10;;
39128;SDS011;24864;49.940;19.770;2023-07-13T08:16:21;7.30;;;5.50;;
39128;SDS011;24864;49.940;19.770;2023-07-13T08:18:51;7.10;;;5.20;;
39128;SDS011;24864;49.940;19.770;2023-07-13T08:21:19;7.03;;;5.85;;
39128;SDS011;24864;49.940;19.770;2023-07-13T08:23:48;7.63;;;5.15;;
39128;SDS011;24864;49.940;19.770;2023-07-13T08:26:16;7.82;;;5.80;;
39128;SDS011;24864;49.940;19.770;2023-07-13T08:28:44;7.00;;;5.60;;
39128;SDS011;24864;49.940;19.770;2023-07-13T08:31:13;7.97;;;6.07;;
39128;SDS011;24864;49.940;19.770;2023-07-13T08:33:41;6.75;;;6.10;;
39128;SDS011;24864;49.940;19.770;2023-07-13T08:36:11;9.73;;;5.45;;
39128;SDS011;24864;49.940;19.770;2023-07-13T08:38:39;8.20;;;5.35;;
39128;SDS011;24864;49.940;19.770;2023-07-13T08:41:11;5.95;;;5.10;;
39128;SDS011;24864;49.940;19.770;2023-07-13T08:43:41;9.27;;;5.82;;
39128;SDS011;24864;49.940;19.770;2023-07-13T08:46:12;7.53;;;5.55;;
39128;SDS011;24864;49.940;19.770;2023-07-13T08:48:43;7.68;;;5.45;;
39128;SDS011;24864;49.940;19.770;2023-07-13T08:51:20;7.38;;;6.05;;
39128;SDS011;24864;49.940;19.770;2023-07-13T08:53:54;6.25;;;5.63;;
39128;SDS011;24864;49.940;19.770;2023-07-13T08:56:27;6.97;;;5.18;;
39128;SDS011;24864;49.940;19.770;2023-07-13T08:58:58;5.93;;;5.10;;
39128;SDS011;24864;49.940;19.770;2023-07-13T09:01:30;7.65;;;5.93;;
39128;SDS011;24864;49.940;19.770;2023-07-13T09:04:03;9.57;;;5.45;;
39128;SDS011;24864;49.940;19.770;2023-07-13T09:06:37;7.50;;;5.40;;
39128;SDS011;24864;49.940;19.770;2023-07-13T09:09:13;8.68;;;6.00;;
39128;SDS011;24864;49.940;19.770;2023-07-13T09:11:45;13.30;;;6.28;;
39128;SDS011;24864;49.940;19.770;2023-07-13T09:14:26;6.55;;;5.60;;
39128;SDS011;24864;49.940;19.770;2023-07-13T09:17:03;7.82;;;5.18;;
39128;SDS011;24864;49.940;19.770;2023-07-13T09:19:32;10.65;;;5.80;;
39128;SDS011;24864;49.940;19.770;2023-07-13T09:22:03;8.25;;;5.32;;
39128;SDS011;24864;49.940;19.770;2023-07-13T09:24:35;7.70;;;6.95;;
39128;SDS011;24864;49.940;19.770;2023-07-13T09:27:15;10.25;;;7.72;;
39128;SDS011;24864;49.940;19.770;2023-07-13T09:32:16;7.55;;;6.85;;
39128;SDS011;24864;49.940;19.770;2023-07-13T09:34:49;9.93;;;7.28;;
39128;SDS011;24864;49.940;19.770;2023-07-13T09:37:21;10.35;;;8.35;;
39128;SDS011;24864;49.940;19.770;2023-07-13T09:42:20;7.80;;;7.00;;
39128;SDS011;24864;49.940;19.770;2023-07-13T09:44:51;10.13;;;6.45;;
39128;SDS011;24864;49.940;19.770;2023-07-13T09:47:22;10.85;;;7.78;;
39128;SDS011;24864;49.940;19.770;2023-07-13T09:49:54;7.72;;;6.95;;
39128;SDS011;24864;49.940;19.770;2023-07-13T09:52:38;8.13;;;7.30;;
39128;SDS011;24864;49.940;19.770;2023-07-13T09:55:22;7.82;;;6.88;;
39128;SDS011;24864;49.940;19.770;2023-07-13T09:57:52;9.98;;;7.72;;
39128;SDS011;24864;49.940;19.770;2023-07-13T10:00:20;8.65;;;7.50;;
39128;SDS011;24864;49.940;19.770;2023-07-13T10:03:01;13.38;;;7.25;;
39128;SDS011;24864;49.940;19.770;2023-07-13T10:05:38;10.48;;;9.32;;
39128;SDS011;24864;49.940;19.770;2023-07-13T10:08:16;9.50;;;7.80;;
39128;SDS011;24864;49.940;19.770;2023-07-13T10:10:45;9.40;;;8.50;;
39128;SDS011;24864;49.940;19.770;2023-07-13T10:13:28;12.13;;;8.85;;
39128;SDS011;24864;49.940;19.770;2023-07-13T10:15:58;10.07;;;9.07;;
39128;SDS011;24864;49.940;19.770;2023-07-13T10:18:28;14.80;;;8.65;;
39128;SDS011;24864;49.940;19.770;2023-07-13T10:21:08;14.73;;;10.60;;
39128;SDS011;24864;49.940;19.770;2023-07-13T10:24:02;14.43;;;10.45;;
39128;SDS011;24864;49.940;19.770;2023-07-13T10:26:36;12.70;;;10.68;;
39128;SDS011;24864;49.940;19.770;2023-07-13T10:29:12;14.40;;;10.93;;
39128;SDS011;24864;49.940;19.770;2023-07-13T10:31:41;16.85;;;11.63;;
39128;SDS011;24864;49.940;19.770;2023-07-13T10:34:12;13.43;;;10.70;;
39128;SDS011;24864;49.940;19.770;2023-07-13T10:36:42;13.60;;;12.30;;
39128;SDS011;24864;49.940;19.770;2023-07-13T10:39:15;13.27;;;11.57;;
39128;SDS011;24864;49.940;19.770;2023-07-13T10:41:44;13.75;;;12.30;;
39128;SDS011;24864;49.940;19.770;2023-07-13T10:44:18;13.77;;;12.38;;
39128;SDS011;24864;49.940;19.770;2023-07-13T10:46:53;19.95;;;13.43;;
39128;SDS011;24864;49.940;19.770;2023-07-13T10:49:23;17.10;;;12.73;;
39128;SDS011;24864;49.940;19.770;2023-07-13T10:51:52;18.30;;;13.45;;
39128;SDS011;24864;49.940;19.770;2023-07-13T10:54:22;15.23;;;13.73;;
39128;SDS011;24864;49.940;19.770;2023-07-13T10:57:06;21.92;;;16.58;;
39128;SDS011;24864;49.940;19.770;2023-07-13T10:59:40;21.48;;;15.50;;
39128;SDS011;24864;49.940;19.770;2023-07-13T11:02:14;22.57;;;16.10;;
39128;SDS011;24864;49.940;19.770;2023-07-13T11:04:48;25.80;;;17.05;;
39128;SDS011;24864;49.940;19.770;2023-07-13T11:07:21;25.08;;;17.90;;
39128;SDS011;24864;49.940;19.770;2023-07-13T11:09:52;28.90;;;18.38;;
39128;SDS011;24864;49.940;19.770;2023-07-13T11:12:29;24.10;;;18.73;;
39128;SDS011;24864;49.940;19.770;2023-07-13T11:15:27;31.40;;;21.50;;
39128;SDS011;24864;49.940;19.770;2023-07-13T11:18:04;22.63;;;18.65;;
39128;SDS011;24864;49.940;19.770;2023-07-13T11:20:33;27.02;;;19.65;;
39128;SDS011;24864;49.940;19.770;2023-07-13T11:23:19;15.15;;;13.57;;
39128;SDS011;24864;49.940;19.770;2023-07-13T11:25:56;13.35;;;8.50;;
39128;SDS011;24864;49.940;19.770;2023-07-13T11:28:26;9.55;;;4.63;;
39128;SDS011;24864;49.940;19.770;2023-07-13T11:31:03;5.07;;;4.22;;
39128;SDS011;24864;49.940;19.770;2023-07-13T11:33:50;8.15;;;3.50;;
39128;SDS011;24864;49.940;19.770;2023-07-13T11:36:29;7.57;;;3.67;;
39128;SDS011;24864;49.940;19.770;2023-07-13T11:39:01;11.20;;;3.90;;
39128;SDS011;24864;49.940;19.770;2023-07-13T11:41:33;6.85;;;4.25;;
39128;SDS011;24864;49.940;19.770;2023-07-13T11:44:11;4.82;;;3.97;;
39128;SDS011;24864;49.940;19.770;2023-07-13T11:46:44;10.27;;;3.72;;
39128;SDS011;24864;49.940;19.770;2023-07-13T11:49:17;4.97;;;3.67;;
39128;SDS011;24864;49.940;19.770;2023-07-13T11:51:46;7.80;;;4.53;;
39128;SDS011;24864;49.940;19.770;2023-07-13T11:54:23;6.60;;;4.10;;
39128;SDS011;24864;49.940;19.770;2023-07-13T11:56:56;8.13;;;4.60;;
39128;SDS011;24864;49.940;19.770;2023-07-13T11:59:28;5.22;;;3.97;;
39128;SDS011;24864;49.940;19.770;2023-07-13T12:01:58;7.78;;;5.13;;
39128;SDS011;24864;49.940;19.770;2023-07-13T12:04:28;6.65;;;4.30;;
39128;SDS011;24864;49.940;19.770;2023-07-13T12:07:03;5.95;;;4.50;;
39128;SDS011;24864;49.940;19.770;2023-07-13T12:09:33;6.55;;;4.22;;
39128;SDS011;24864;49.940;19.770;2023-07-13T12:12:08;5.28;;;4.47;;
39128;SDS011;24864;49.940;19.770;2023-07-13T12:14:39;7.60;;;4.95;;
39128;SDS011;24864;49.940;19.770;2023-07-13T12:17:11;9.23;;;4.90;;
39128;SDS011;24864;49.940;19.770;2023-07-13T12:19:42;7.80;;;5.07;;
39128;SDS011;24864;49.940;19.770;2023-07-13T12:22:11;7.93;;;5.78;;
39128;SDS011;24864;49.940;19.770;2023-07-13T12:24:40;6.88;;;4.90;;
39128;SDS011;24864;49.940;19.770;2023-07-13T12:27:16;5.93;;;4.53;;
39128;SDS011;24864;49.940;19.770;2023-07-13T12:29:49;8.90;;;5.13;;
39128;SDS011;24864;49.940;19.770;2023-07-13T12:32:20;6.75;;;4.95;;
39128;SDS011;24864;49.940;19.770;2023-07-13T12:34:52;6.88;;;4.32;;
39128;SDS011;24864;49.940;19.770;2023-07-13T12:37:23;6.90;;;4.82;;
39128;SDS011;24864;49.940;19.770;2023-07-13T12:39:51;5.65;;;4.30;;
39128;SDS011;24864;49.940;19.770;2023-07-13T12:42:22;6.68;;;3.90;;
39128;SDS011;24864;49.940;19.770;2023-07-13T12:44:54;5.72;;;3.55;;
39128;SDS011;24864;49.940;19.770;2023-07-13T12:47:25;4.68;;;3.65;;
39128;SDS011;24864;49.940;19.770;2023-07-13T12:49:55;6.05;;;3.67;;
39128;SDS011;24864;49.940;19.770;2023-07-13T12:52:28;4.35;;;3.65;;
39128;SDS011;24864;49.940;19.770;2023-07-13T12:55:03;6.10;;;3.55;;
39128;SDS011;24864;49.940;19.770;2023-07-13T12:57:39;4.47;;;3.78;;
39128;SDS011;24864;49.940;19.770;2023-07-13T13:00:18;5.00;;;3.88;;
39128;SDS011;24864;49.940;19.770;2023-07-13T13:02:52;7.03;;;4.00;;
39128;SDS011;24864;49.940;19.770;2023-07-13T13:05:42;7.03;;;4.57;;
39128;SDS011;24864;49.940;19.770;2023-07-13T13:08:12;5.35;;;4.18;;
39128;SDS011;24864;49.940;19.770;2023-07-13T13:10:40;4.45;;;3.97;;
39128;SDS011;24864;49.940;19.770;2023-07-13T13:13:10;4.50;;;3.70;;
39128;SDS011;24864;49.940;19.770;2023-07-13T13:15:38;5.50;;;3.53;;
39128;SDS011;24864;49.940;19.770;2023-07-13T13:18:10;5.03;;;3.15;;
39128;SDS011;24864;49.940;19.770;2023-07-13T13:20:43;4.07;;;3.10;;
39128;SDS011;24864;49.940;19.770;2023-07-13T13:23:13;3.00;;;2.33;;
39128;SDS011;24864;49.940;19.770;2023-07-13T13:25:44;3.35;;;2.75;;
39128;SDS011;24864;49.940;19.770;2023-07-13T13:28:15;4.18;;;2.30;;
39128;SDS011;24864;49.940;19.770;2023-07-13T13:30:44;3.42;;;2.85;;
39128;SDS011;24864;49.940;19.770;2023-07-13T13:33:14;3.80;;;3.00;;
39128;SDS011;24864;49.940;19.770;2023-07-13T13:35:43;3.25;;;2.85;;
39128;SDS011;24864;49.940;19.770;2023-07-13T13:38:12;5.45;;;2.85;;
39128;SDS011;24864;49.940;19.770;2023-07-13T13:40:41;3.33;;;2.70;;
39128;SDS011;24864;49.940;19.770;2023-07-13T13:43:18;4.60;;;2.40;;
39128;SDS011;24864;49.940;19.770;2023-07-13T13:45:53;3.42;;;2.67;;
39128;SDS011;24864;49.940;19.770;2023-07-13T13:48:26;2.70;;;2.23;;
39128;SDS011;24864;49.940;19.770;2023-07-13T13:50:58;3.92;;;2.40;;
39128;SDS011;24864;49.940;19.770;2023-07-13T13:53:26;5.53;;;2.97;;
39128;SDS011;24864;49.940;19.770;2023-07-13T13:55:55;3.20;;;2.72;;
39128;SDS011;24864;49.940;19.770;2023-07-13T13:58:24;4.55;;;3.05;;
39128;SDS011;24864;49.940;19.770;2023-07-13T14:00:52;3.30;;;2.63;;
39128;SDS011;24864;49.940;19.770;2023-07-13T14:03:20;4.03;;;2.97;;
39128;SDS011;24864;49.940;19.770;2023-07-13T14:05:49;5.47;;;2.38;;
39128;SDS011;24864;49.940;19.770;2023-07-13T14:08:18;2.38;;;2.03;;
39128;SDS011;24864;49.940;19.770;2023-07-13T14:10:49;3.17;;;2.33;;
39128;SDS011;24864;49.940;19.770;2023-07-13T14:13:19;4.13;;;2.70;;
39128;SDS011;24864;49.940;19.770;2023-07-13T14:15:50;4.32;;;2.60;;
39128;SDS011;24864;49.940;19.770;2023-07-13T14:18:19;8.70;;;3.08;;
39128;SDS011;24864;49.940;19.770;2023-07-13T14:20:48;4.60;;;3.10;;
39128;SDS011;24864;49.940;19.770;2023-07-13T14:23:19;4.28;;;3.47;;
39128;SDS011;24864;49.940;19.770;2023-07-13T14:25:47;4.40;;;3.53;;
39128;SDS011;24864;49.940;19.770;2023-07-13T14:28:20;5.65;;;3.55;;
39128;SDS011;24864;49.940;19.770;2023-07-13T14:30:51;4.60;;;3.70;;
39128;SDS011;24864;49.940;19.770;2023-07-13T14:33:20;5.30;;;4.22;;
39128;SDS011;24864;49.940;19.770;2023-07-13T14:35:49;11.85;;;4.28;;
39128;SDS011;24864;49.940;19.770;2023-07-13T14:38:19;3.33;;;2.90;;
39128;SDS011;24864;49.940;19.770;2023-07-13T14:40:47;6.53;;;3.17;;
39128;SDS011;24864;49.940;19.770;2023-07-13T14:43:16;4.43;;;3.50;;
39128;SDS011;24864;49.940;19.770;2023-07-13T14:45:46;5.75;;;3.70;;
39128;SDS011;24864;49.940;19.770;2023-07-13T14:50:46;3.40;;;2.88;;
39128;SDS011;24864;49.940;19.770;2023-07-13T14:53:18;3.05;;;2.15;;
39128;SDS011;24864;49.940;19.770;2023-07-13T14:55:46;3.53;;;2.75;;
39128;SDS011;24864;49.940;19.770;2023-07-13T14:58:14;7.75;;;3.00;;
39128;SDS011;24864;49.940;19.770;2023-07-13T15:00:43;3.33;;;3.03;;
39128;SDS011;24864;49.940;19.770;2023-07-13T15:03:15;6.05;;;4.70;;